<?xml version="1.0" encoding="UTF-8" standalone="no" ?>
<gpx xmlns="http://www.topografix.com/GPX/1/1" xmlns:xsi="http://www.w3.org/2001/XMLSchema-instance" xsi:schemaLocation="http://www.topografix.com/GPX/1/1 http://www.topografix.com/GPX/1/1/gpx.xsd" version="1.1" creator="VisuGPX - https://www.visugpx.com">
  <metadata>
    <name>gr70 etape4</name>
    <desc><![CDATA[4 première étape]]></desc>
  </metadata>
  <trk>
    <name><![CDATA[gr70 etape4_4]]></name>
    <trkseg>
      <trkpt lat="44.83047" lon="3.82694">
        <ele>1109.171</ele>
        <time>2016-06-07T21:14:33Z</time>
      </trkpt>
      <trkpt lat="44.83025" lon="3.82601">
        <ele>1111.039</ele>
        <time>2016-06-07T21:14:53Z</time>
      </trkpt>
      <trkpt lat="44.82998" lon="3.82498">
        <ele>1111.997</ele>
        <time>2016-06-07T21:15:13Z</time>
      </trkpt>
      <trkpt lat="44.82914" lon="3.82375">
        <ele>1114.769</ele>
        <time>2016-06-07T21:15:33Z</time>
      </trkpt>
      <trkpt lat="44.82868" lon="3.82346">
        <ele>1113.029</ele>
        <time>2016-06-07T21:15:53Z</time>
      </trkpt>
      <trkpt lat="44.82769" lon="3.823">
        <ele>1106.76</ele>
        <time>2016-06-07T21:16:13Z</time>
      </trkpt>
      <trkpt lat="44.82707" lon="3.8223">
        <ele>1104.984</ele>
        <time>2016-06-07T21:16:33Z</time>
      </trkpt>
      <trkpt lat="44.82684" lon="3.82184">
        <ele>1103.007</ele>
        <time>2016-06-07T21:16:53Z</time>
      </trkpt>
      <trkpt lat="44.82571" lon="3.82019">
        <ele>1093.417</ele>
        <time>2016-06-07T21:17:13Z</time>
      </trkpt>
      <trkpt lat="44.82514" lon="3.81968">
        <ele>1090.308</ele>
        <time>2016-06-07T21:17:33Z</time>
      </trkpt>
      <trkpt lat="44.82468" lon="3.81936">
        <ele>1087.621</ele>
        <time>2016-06-07T21:17:53Z</time>
      </trkpt>
      <trkpt lat="44.82333" lon="3.81803">
        <ele>1080.812</ele>
        <time>2016-06-07T21:18:13Z</time>
      </trkpt>
      <trkpt lat="44.82272" lon="3.81693">
        <ele>1072.013</ele>
        <time>2016-06-07T21:18:33Z</time>
      </trkpt>
      <trkpt lat="44.82214" lon="3.8155">
        <ele>1068.571</ele>
        <time>2016-06-07T21:18:53Z</time>
      </trkpt>
      <trkpt lat="44.82202" lon="3.81498">
        <ele>1067.639</ele>
        <time>2016-06-07T21:19:13Z</time>
      </trkpt>
      <trkpt lat="44.82192" lon="3.81456">
        <ele>1064.851</ele>
        <time>2016-06-07T21:19:33Z</time>
      </trkpt>
      <trkpt lat="44.82185" lon="3.81409">
        <ele>1061.641</ele>
        <time>2016-06-07T21:19:53Z</time>
      </trkpt>
      <trkpt lat="44.82153" lon="3.81338">
        <ele>1059.082</ele>
        <time>2016-06-07T21:20:13Z</time>
      </trkpt>
      <trkpt lat="44.82145" lon="3.81278">
        <ele>1058.824</ele>
        <time>2016-06-07T21:20:33Z</time>
      </trkpt>
      <trkpt lat="44.82112" lon="3.81189">
        <ele>1049.904</ele>
        <time>2016-06-07T21:20:53Z</time>
      </trkpt>
      <trkpt lat="44.82096" lon="3.81204">
        <ele>1049.714</ele>
        <time>2016-06-07T21:21:13Z</time>
      </trkpt>
      <trkpt lat="44.82051" lon="3.81212">
        <ele>1047.908</ele>
        <time>2016-06-07T21:21:33Z</time>
      </trkpt>
      <trkpt lat="44.82018" lon="3.81195">
        <ele>1048.425</ele>
        <time>2016-06-07T21:21:53Z</time>
      </trkpt>
      <trkpt lat="44.81946" lon="3.81128">
        <ele>1046.256</ele>
        <time>2016-06-07T21:22:13Z</time>
      </trkpt>
      <trkpt lat="44.81929" lon="3.81126">
        <ele>1045.887</ele>
        <time>2016-06-07T21:22:33Z</time>
      </trkpt>
      <trkpt lat="44.81884" lon="3.81149">
        <ele>1046.275</ele>
        <time>2016-06-07T21:22:53Z</time>
      </trkpt>
      <trkpt lat="44.81822" lon="3.81188">
        <ele>1039.913</ele>
        <time>2016-06-07T21:23:13Z</time>
      </trkpt>
      <trkpt lat="44.81823" lon="3.8121">
        <ele>1037.445</ele>
        <time>2016-06-07T21:23:33Z</time>
      </trkpt>
      <trkpt lat="44.8185" lon="3.81253">
        <ele>1038.975</ele>
        <time>2016-06-07T21:23:53Z</time>
      </trkpt>
      <trkpt lat="44.81886" lon="3.81348">
        <ele>1036.096</ele>
        <time>2016-06-07T21:24:13Z</time>
      </trkpt>
      <trkpt lat="44.81894" lon="3.81392">
        <ele>1033.835</ele>
        <time>2016-06-07T21:24:33Z</time>
      </trkpt>
      <trkpt lat="44.81892" lon="3.81455">
        <ele>1032.386</ele>
        <time>2016-06-07T21:24:53Z</time>
      </trkpt>
      <trkpt lat="44.81859" lon="3.81511">
        <ele>1023.914</ele>
        <time>2016-06-07T21:25:13Z</time>
      </trkpt>
      <trkpt lat="44.81829" lon="3.81568">
        <ele>1022.008</ele>
        <time>2016-06-07T21:25:33Z</time>
      </trkpt>
      <trkpt lat="44.81813" lon="3.81571">
        <ele>1024.246</ele>
        <time>2016-06-07T21:25:53Z</time>
      </trkpt>
      <trkpt lat="44.81792" lon="3.81558">
        <ele>1026.217</ele>
        <time>2016-06-07T21:26:13Z</time>
      </trkpt>
      <trkpt lat="44.8176" lon="3.81527">
        <ele>1031.228</ele>
        <time>2016-06-07T21:26:33Z</time>
      </trkpt>
      <trkpt lat="44.81726" lon="3.81503">
        <ele>1034.916</ele>
        <time>2016-06-07T21:26:53Z</time>
      </trkpt>
      <trkpt lat="44.81689" lon="3.81469">
        <ele>1037.354</ele>
        <time>2016-06-07T21:27:13Z</time>
      </trkpt>
      <trkpt lat="44.81667" lon="3.81461">
        <ele>1039.726</ele>
        <time>2016-06-07T21:27:33Z</time>
      </trkpt>
      <trkpt lat="44.81648" lon="3.81439">
        <ele>1039.316</ele>
        <time>2016-06-07T21:27:53Z</time>
      </trkpt>
      <trkpt lat="44.81619" lon="3.81436">
        <ele>1041.437</ele>
        <time>2016-06-07T21:28:13Z</time>
      </trkpt>
      <trkpt lat="44.81549" lon="3.81445">
        <ele>1041.854</ele>
        <time>2016-06-07T21:28:33Z</time>
      </trkpt>
      <trkpt lat="44.81508" lon="3.81443">
        <ele>1041.056</ele>
        <time>2016-06-07T21:28:53Z</time>
      </trkpt>
      <trkpt lat="44.81478" lon="3.81454">
        <ele>1040.511</ele>
        <time>2016-06-07T21:29:13Z</time>
      </trkpt>
      <trkpt lat="44.81443" lon="3.81475">
        <ele>1040.108</ele>
        <time>2016-06-07T21:29:33Z</time>
      </trkpt>
      <trkpt lat="44.81415" lon="3.8147">
        <ele>1039.988</ele>
        <time>2016-06-07T21:29:53Z</time>
      </trkpt>
      <trkpt lat="44.81324" lon="3.81612">
        <ele>1042.889</ele>
        <time>2016-06-07T21:30:13Z</time>
      </trkpt>
      <trkpt lat="44.81295" lon="3.81638">
        <ele>1042.66</ele>
        <time>2016-06-07T21:30:33Z</time>
      </trkpt>
      <trkpt lat="44.81254" lon="3.81648">
        <ele>1041.298</ele>
        <time>2016-06-07T21:30:53Z</time>
      </trkpt>
      <trkpt lat="44.81189" lon="3.8175">
        <ele>1039.826</ele>
        <time>2016-06-07T21:31:13Z</time>
      </trkpt>
      <trkpt lat="44.81177" lon="3.81756">
        <ele>1039.488</ele>
        <time>2016-06-07T21:31:33Z</time>
      </trkpt>
      <trkpt lat="44.81152" lon="3.81728">
        <ele>1037.998</ele>
        <time>2016-06-07T21:31:53Z</time>
      </trkpt>
      <trkpt lat="44.81141" lon="3.81729">
        <ele>1037.239</ele>
        <time>2016-06-07T21:32:13Z</time>
      </trkpt>
      <trkpt lat="44.81086" lon="3.81843">
        <ele>1037.031</ele>
        <time>2016-06-07T21:32:33Z</time>
      </trkpt>
      <trkpt lat="44.81064" lon="3.8188">
        <ele>1036.361</ele>
        <time>2016-06-07T21:32:53Z</time>
      </trkpt>
      <trkpt lat="44.8104" lon="3.81948">
        <ele>1036.507</ele>
        <time>2016-06-07T21:33:13Z</time>
      </trkpt>
      <trkpt lat="44.81007" lon="3.82003">
        <ele>1035.308</ele>
        <time>2016-06-07T21:33:33Z</time>
      </trkpt>
      <trkpt lat="44.80921" lon="3.82214">
        <ele>1023.266</ele>
        <time>2016-06-07T21:33:53Z</time>
      </trkpt>
      <trkpt lat="44.80897" lon="3.82247">
        <ele>1020.057</ele>
        <time>2016-06-07T21:34:13Z</time>
      </trkpt>
      <trkpt lat="44.80902" lon="3.82281">
        <ele>1020.598</ele>
        <time>2016-06-07T21:34:33Z</time>
      </trkpt>
      <trkpt lat="44.80899" lon="3.82332">
        <ele>1022.736</ele>
        <time>2016-06-07T21:34:53Z</time>
      </trkpt>
      <trkpt lat="44.80813" lon="3.82344">
        <ele>1018.094</ele>
        <time>2016-06-07T21:35:13Z</time>
      </trkpt>
      <trkpt lat="44.80747" lon="3.82342">
        <ele>1014.156</ele>
        <time>2016-06-07T21:35:33Z</time>
      </trkpt>
      <trkpt lat="44.80688" lon="3.82378">
        <ele>1006.246</ele>
        <time>2016-06-07T21:35:53Z</time>
      </trkpt>
      <trkpt lat="44.80685" lon="3.82486">
        <ele>1008.547</ele>
        <time>2016-06-07T21:36:13Z</time>
      </trkpt>
      <trkpt lat="44.80673" lon="3.82534">
        <ele>1005.671</ele>
        <time>2016-06-07T21:36:33Z</time>
      </trkpt>
      <trkpt lat="44.80673" lon="3.82582">
        <ele>995.941</ele>
        <time>2016-06-07T21:36:53Z</time>
      </trkpt>
      <trkpt lat="44.80684" lon="3.82608">
        <ele>992.715</ele>
        <time>2016-06-07T21:37:13Z</time>
      </trkpt>
      <trkpt lat="44.80722" lon="3.82647">
        <ele>994.208</ele>
        <time>2016-06-07T21:37:33Z</time>
      </trkpt>
      <trkpt lat="44.80737" lon="3.82674">
        <ele>994.17</ele>
        <time>2016-06-07T21:37:53Z</time>
      </trkpt>
      <trkpt lat="44.80752" lon="3.82755">
        <ele>986.631</ele>
        <time>2016-06-07T21:38:13Z</time>
      </trkpt>
      <trkpt lat="44.80743" lon="3.82783">
        <ele>987.652</ele>
        <time>2016-06-07T21:38:33Z</time>
      </trkpt>
      <trkpt lat="44.80728" lon="3.82792">
        <ele>990.34</ele>
        <time>2016-06-07T21:38:53Z</time>
      </trkpt>
      <trkpt lat="44.80676" lon="3.82766">
        <ele>987.228</ele>
        <time>2016-06-07T21:39:13Z</time>
      </trkpt>
      <trkpt lat="44.8065" lon="3.82746">
        <ele>985.18</ele>
        <time>2016-06-07T21:39:33Z</time>
      </trkpt>
      <trkpt lat="44.80591" lon="3.82745">
        <ele>991.67</ele>
        <time>2016-06-07T21:39:53Z</time>
      </trkpt>
      <trkpt lat="44.80546" lon="3.82765">
        <ele>1006.421</ele>
        <time>2016-06-07T21:40:13Z</time>
      </trkpt>
      <trkpt lat="44.80468" lon="3.82786">
        <ele>1008.582</ele>
        <time>2016-06-07T21:40:33Z</time>
      </trkpt>
      <trkpt lat="44.80421" lon="3.82829">
        <ele>1008.943</ele>
        <time>2016-06-07T21:40:53Z</time>
      </trkpt>
      <trkpt lat="44.80408" lon="3.82871">
        <ele>1010.417</ele>
        <time>2019-03-25T18:09:11Z</time>
      </trkpt>
      <trkpt lat="44.80346" lon="3.82927">
        <ele>1014.308</ele>
        <time>2019-03-25T18:09:31Z</time>
      </trkpt>
      <trkpt lat="44.80326" lon="3.8297">
        <ele>1019.541</ele>
        <time>2016-06-07T21:45:13Z</time>
      </trkpt>
      <trkpt lat="44.80331" lon="3.83033">
        <ele>1024.322</ele>
        <time>2019-03-25T18:10:11Z</time>
      </trkpt>
      <trkpt lat="44.80405" lon="3.83019">
        <ele>1023.633</ele>
        <time>2016-06-07T21:45:53Z</time>
      </trkpt>
      <trkpt lat="44.80497" lon="3.83038">
        <ele>1029.291</ele>
        <time>2016-06-07T21:46:13Z</time>
      </trkpt>
      <trkpt lat="44.80618" lon="3.83085">
        <ele>1035.419</ele>
        <time>2016-06-07T21:46:33Z</time>
      </trkpt>
      <trkpt lat="44.80618" lon="3.83085">
        <ele>1035.421</ele>
        <time>2016-06-07T21:46:53Z</time>
      </trkpt>
      <trkpt lat="44.80668" lon="3.83088">
        <ele>1036.741</ele>
        <time>2016-06-07T21:47:13Z</time>
      </trkpt>
      <trkpt lat="44.80656" lon="3.83137">
        <ele>1045.422</ele>
        <time>2016-06-07T21:47:33Z</time>
      </trkpt>
      <trkpt lat="44.80642" lon="3.83245">
        <ele>1059.563</ele>
        <time>2016-06-07T21:47:53Z</time>
      </trkpt>
      <trkpt lat="44.80613" lon="3.83347">
        <ele>1066.544</ele>
        <time>2016-06-07T21:48:13Z</time>
      </trkpt>
      <trkpt lat="44.80583" lon="3.83399">
        <ele>1074.718</ele>
        <time>2016-06-07T21:48:33Z</time>
      </trkpt>
      <trkpt lat="44.80548" lon="3.83447">
        <ele>1080.008</ele>
        <time>2016-06-07T21:48:53Z</time>
      </trkpt>
      <trkpt lat="44.80498" lon="3.83533">
        <ele>1083.679</ele>
        <time>2016-06-07T21:49:13Z</time>
      </trkpt>
      <trkpt lat="44.80477" lon="3.83556">
        <ele>1085.42</ele>
        <time>2016-06-07T21:49:33Z</time>
      </trkpt>
      <trkpt lat="44.80388" lon="3.83722">
        <ele>1099.091</ele>
        <time>2016-06-07T21:49:53Z</time>
      </trkpt>
      <trkpt lat="44.80373" lon="3.83776">
        <ele>1100.599</ele>
        <time>2016-06-07T21:50:13Z</time>
      </trkpt>
      <trkpt lat="44.80372" lon="3.83807">
        <ele>1101.367</ele>
        <time>2016-06-07T21:50:33Z</time>
      </trkpt>
      <trkpt lat="44.80297" lon="3.83972">
        <ele>1113.089</ele>
        <time>2016-06-07T21:50:53Z</time>
      </trkpt>
      <trkpt lat="44.80241" lon="3.84104">
        <ele>1125.319</ele>
        <time>2016-06-07T21:51:13Z</time>
      </trkpt>
      <trkpt lat="44.80213" lon="3.842">
        <ele>1131.14</ele>
        <time>2016-06-07T21:51:33Z</time>
      </trkpt>
      <trkpt lat="44.80197" lon="3.84309">
        <ele>1142.464</ele>
        <time>2016-06-07T21:51:53Z</time>
      </trkpt>
      <trkpt lat="44.80169" lon="3.84363">
        <ele>1144.906</ele>
        <time>2016-06-07T21:52:13Z</time>
      </trkpt>
      <trkpt lat="44.80133" lon="3.84454">
        <ele>1150.716</ele>
        <time>2016-06-07T21:52:33Z</time>
      </trkpt>
      <trkpt lat="44.80117" lon="3.84515">
        <ele>1153.008</ele>
        <time>2016-06-07T21:52:53Z</time>
      </trkpt>
      <trkpt lat="44.80098" lon="3.84561">
        <ele>1153.119</ele>
        <time>2016-06-07T21:53:13Z</time>
      </trkpt>
      <trkpt lat="44.80092" lon="3.84633">
        <ele>1152.57</ele>
        <time>2016-06-07T21:53:33Z</time>
      </trkpt>
      <trkpt lat="44.80066" lon="3.84696">
        <ele>1148.091</ele>
        <time>2016-06-07T21:53:53Z</time>
      </trkpt>
      <trkpt lat="44.80069" lon="3.8482">
        <ele>1145.459</ele>
        <time>2016-06-07T21:54:13Z</time>
      </trkpt>
      <trkpt lat="44.80082" lon="3.84972">
        <ele>1142.987</ele>
        <time>2016-06-07T21:54:33Z</time>
      </trkpt>
      <trkpt lat="44.80076" lon="3.85033">
        <ele>1138.639</ele>
        <time>2016-06-07T21:54:53Z</time>
      </trkpt>
      <trkpt lat="44.80069" lon="3.85053">
        <ele>1138.989</ele>
        <time>2016-06-07T21:55:13Z</time>
      </trkpt>
      <trkpt lat="44.80075" lon="3.85083">
        <ele>1139.37</ele>
        <time>2016-06-07T21:55:33Z</time>
      </trkpt>
      <trkpt lat="44.80018" lon="3.85159">
        <ele>1143.997</ele>
        <time>2016-06-07T21:55:53Z</time>
      </trkpt>
      <trkpt lat="44.80003" lon="3.8517">
        <ele>1143.323</ele>
        <time>2016-06-07T21:56:13Z</time>
      </trkpt>
      <trkpt lat="44.79914" lon="3.853">
        <ele>1144.625</ele>
        <time>2016-06-07T21:56:33Z</time>
      </trkpt>
      <trkpt lat="44.79768" lon="3.85435">
        <ele>1149.208</ele>
        <time>2016-06-07T21:56:53Z</time>
      </trkpt>
      <trkpt lat="44.79731" lon="3.8548">
        <ele>1150.892</ele>
        <time>2016-06-07T21:57:13Z</time>
      </trkpt>
      <trkpt lat="44.79706" lon="3.85524">
        <ele>1152.863</ele>
        <time>2016-06-07T21:57:33Z</time>
      </trkpt>
      <trkpt lat="44.79651" lon="3.85549">
        <ele>1153.234</ele>
        <time>2016-06-07T21:57:53Z</time>
      </trkpt>
      <trkpt lat="44.79525" lon="3.8565">
        <ele>1150.652</ele>
        <time>2016-06-07T21:58:13Z</time>
      </trkpt>
      <trkpt lat="44.79487" lon="3.85689">
        <ele>1149.37</ele>
        <time>2016-06-07T21:58:33Z</time>
      </trkpt>
      <trkpt lat="44.79424" lon="3.858">
        <ele>1153.052</ele>
        <time>2016-06-07T21:58:53Z</time>
      </trkpt>
      <trkpt lat="44.79376" lon="3.85859">
        <ele>1154.882</ele>
        <time>2016-06-07T21:59:13Z</time>
      </trkpt>
      <trkpt lat="44.79355" lon="3.85874">
        <ele>1156.813</ele>
        <time>2016-06-07T21:59:33Z</time>
      </trkpt>
      <trkpt lat="44.79343" lon="3.85867">
        <ele>1157.085</ele>
        <time>2016-06-07T21:59:53Z</time>
      </trkpt>
      <trkpt lat="44.79277" lon="3.8589">
        <ele>1158.089</ele>
        <time>2016-06-07T22:00:13Z</time>
      </trkpt>
      <trkpt lat="44.79202" lon="3.85873">
        <ele>1157.317</ele>
        <time>2016-06-07T22:00:33Z</time>
      </trkpt>
      <trkpt lat="44.79143" lon="3.8588">
        <ele>1156.408</ele>
        <time>2016-06-07T22:00:53Z</time>
      </trkpt>
      <trkpt lat="44.79096" lon="3.85904">
        <ele>1158.251</ele>
        <time>2016-06-07T22:01:13Z</time>
      </trkpt>
      <trkpt lat="44.79043" lon="3.85918">
        <ele>1159.252</ele>
        <time>2016-06-07T22:01:33Z</time>
      </trkpt>
      <trkpt lat="44.79006" lon="3.85937">
        <ele>1156.053</ele>
        <time>2016-06-07T22:01:53Z</time>
      </trkpt>
      <trkpt lat="44.78969" lon="3.85967">
        <ele>1154.771</ele>
        <time>2016-06-07T22:02:13Z</time>
      </trkpt>
      <trkpt lat="44.78962" lon="3.85999">
        <ele>1156.089</ele>
        <time>2016-06-07T22:02:33Z</time>
      </trkpt>
      <trkpt lat="44.78965" lon="3.86027">
        <ele>1156.431</ele>
        <time>2016-06-07T22:02:53Z</time>
      </trkpt>
      <trkpt lat="44.78959" lon="3.86072">
        <ele>1153.851</ele>
        <time>2016-06-07T22:03:13Z</time>
      </trkpt>
      <trkpt lat="44.78945" lon="3.86095">
        <ele>1152.592</ele>
        <time>2016-06-07T22:03:33Z</time>
      </trkpt>
      <trkpt lat="44.7893" lon="3.86106">
        <ele>1153.086</ele>
        <time>2016-06-07T22:03:53Z</time>
      </trkpt>
      <trkpt lat="44.78885" lon="3.86051">
        <ele>1149.46</ele>
        <time>2016-06-07T22:04:13Z</time>
      </trkpt>
      <trkpt lat="44.78864" lon="3.86036">
        <ele>1151.626</ele>
        <time>2016-06-07T22:04:33Z</time>
      </trkpt>
      <trkpt lat="44.78853" lon="3.86052">
        <ele>1154.208</ele>
        <time>2016-06-07T22:04:53Z</time>
      </trkpt>
      <trkpt lat="44.78823" lon="3.86069">
        <ele>1158.721</ele>
        <time>2016-06-07T22:05:13Z</time>
      </trkpt>
      <trkpt lat="44.78796" lon="3.86082">
        <ele>1162.962</ele>
        <time>2016-06-07T22:05:33Z</time>
      </trkpt>
      <trkpt lat="44.78742" lon="3.86138">
        <ele>1176.233</ele>
        <time>2016-06-07T22:05:53Z</time>
      </trkpt>
      <trkpt lat="44.78725" lon="3.86147">
        <ele>1176.341</ele>
        <time>2016-06-07T22:06:13Z</time>
      </trkpt>
      <trkpt lat="44.78646" lon="3.86345">
        <ele>1191.499</ele>
        <time>2016-06-07T22:06:33Z</time>
      </trkpt>
      <trkpt lat="44.78551" lon="3.86531">
        <ele>1207.231</ele>
        <time>2016-06-07T22:06:53Z</time>
      </trkpt>
      <trkpt lat="44.78537" lon="3.8658">
        <ele>1210.231</ele>
        <time>2016-06-07T22:07:13Z</time>
      </trkpt>
      <trkpt lat="44.78394" lon="3.86763">
        <ele>1213.272</ele>
        <time>2016-06-07T22:07:33Z</time>
      </trkpt>
      <trkpt lat="44.78372" lon="3.86802">
        <ele>1215.232</ele>
        <time>2016-06-07T22:07:53Z</time>
      </trkpt>
      <trkpt lat="44.78315" lon="3.86934">
        <ele>1225.392</ele>
        <time>2016-06-07T22:08:13Z</time>
      </trkpt>
      <trkpt lat="44.78248" lon="3.87062">
        <ele>1232.111</ele>
        <time>2016-06-07T22:08:33Z</time>
      </trkpt>
      <trkpt lat="44.78241" lon="3.8709">
        <ele>1232.808</ele>
        <time>2016-06-07T22:08:53Z</time>
      </trkpt>
      <trkpt lat="44.78244" lon="3.87121">
        <ele>1233.576</ele>
        <time>2016-06-07T22:09:13Z</time>
      </trkpt>
      <trkpt lat="44.78304" lon="3.87251">
        <ele>1232.877</ele>
        <time>2016-06-07T22:09:33Z</time>
      </trkpt>
      <trkpt lat="44.78354" lon="3.87377">
        <ele>1233.918</ele>
        <time>2016-06-07T22:09:53Z</time>
      </trkpt>
      <trkpt lat="44.78396" lon="3.87415">
        <ele>1236.516</ele>
        <time>2016-06-07T22:10:13Z</time>
      </trkpt>
      <trkpt lat="44.7845" lon="3.87484">
        <ele>1238.324</ele>
        <time>2016-06-07T22:10:33Z</time>
      </trkpt>
      <trkpt lat="44.78499" lon="3.87513">
        <ele>1236.086</ele>
        <time>2016-06-07T22:10:53Z</time>
      </trkpt>
      <trkpt lat="44.78464" lon="3.87527">
        <ele>1233.776</ele>
        <time>2016-06-07T22:11:13Z</time>
      </trkpt>
      <trkpt lat="44.78426" lon="3.87535">
        <ele>1235.227</ele>
        <time>2016-06-07T22:11:33Z</time>
      </trkpt>
      <trkpt lat="44.78369" lon="3.87552">
        <ele>1235.265</ele>
        <time>2016-06-07T22:11:53Z</time>
      </trkpt>
      <trkpt lat="44.783" lon="3.87604">
        <ele>1228.968</ele>
        <time>2016-06-07T22:12:13Z</time>
      </trkpt>
      <trkpt lat="44.78279" lon="3.87626">
        <ele>1230.014</ele>
        <time>2016-06-07T22:12:33Z</time>
      </trkpt>
      <trkpt lat="44.7825" lon="3.87648">
        <ele>1231.308</ele>
        <time>2016-06-07T22:12:53Z</time>
      </trkpt>
      <trkpt lat="44.7814" lon="3.87686">
        <ele>1224.819</ele>
        <time>2016-06-07T22:13:13Z</time>
      </trkpt>
      <trkpt lat="44.78104" lon="3.87691">
        <ele>1218.61</ele>
        <time>2016-06-07T22:13:33Z</time>
      </trkpt>
      <trkpt lat="44.78066" lon="3.87735">
        <ele>1215.081</ele>
        <time>2016-06-07T22:13:53Z</time>
      </trkpt>
      <trkpt lat="44.7801" lon="3.87769">
        <ele>1206.939</ele>
        <time>2016-06-07T22:14:13Z</time>
      </trkpt>
      <trkpt lat="44.77988" lon="3.87843">
        <ele>1208.557</ele>
        <time>2016-06-07T22:14:33Z</time>
      </trkpt>
      <trkpt lat="44.77972" lon="3.87859">
        <ele>1208.989</ele>
        <time>2016-06-07T22:14:53Z</time>
      </trkpt>
      <trkpt lat="44.7795" lon="3.87862">
        <ele>1205.199</ele>
        <time>2016-06-07T22:15:13Z</time>
      </trkpt>
      <trkpt lat="44.77909" lon="3.87857">
        <ele>1196.51</ele>
        <time>2016-06-07T22:15:33Z</time>
      </trkpt>
      <trkpt lat="44.77884" lon="3.87884">
        <ele>1188.241</ele>
        <time>2016-06-07T22:15:53Z</time>
      </trkpt>
      <trkpt lat="44.77872" lon="3.87913">
        <ele>1185.481</ele>
        <time>2016-06-07T22:16:13Z</time>
      </trkpt>
      <trkpt lat="44.77833" lon="3.87985">
        <ele>1179.709</ele>
        <time>2016-06-07T22:16:33Z</time>
      </trkpt>
      <trkpt lat="44.77721" lon="3.88152">
        <ele>1153.308</ele>
        <time>2016-06-07T22:16:53Z</time>
      </trkpt>
      <trkpt lat="44.77656" lon="3.88304">
        <ele>1149.057</ele>
        <time>2019-03-25T18:41:51Z</time>
      </trkpt>
      <trkpt lat="44.77634" lon="3.88329">
        <ele>1146.578</ele>
        <time>2019-03-25T18:42:11Z</time>
      </trkpt>
      <trkpt lat="44.77614" lon="3.88318">
        <ele>1144.569</ele>
        <time>2019-03-25T18:42:31Z</time>
      </trkpt>
      <trkpt lat="44.77563" lon="3.88208">
        <ele>1141.317</ele>
        <time>2019-03-25T18:42:51Z</time>
      </trkpt>
      <trkpt lat="44.77501" lon="3.88163">
        <ele>1138.545</ele>
        <time>2019-03-25T18:43:11Z</time>
      </trkpt>
      <trkpt lat="44.77469" lon="3.88203">
        <ele>1145.337</ele>
        <time>2019-03-25T18:43:31Z</time>
      </trkpt>
      <trkpt lat="44.77382" lon="3.88276">
        <ele>1149.757</ele>
        <time>2019-03-25T18:43:51Z</time>
      </trkpt>
      <trkpt lat="44.77304" lon="3.88285">
        <ele>1148.538</ele>
        <time>2019-03-25T18:44:11Z</time>
      </trkpt>
      <trkpt lat="44.77278" lon="3.88303">
        <ele>1153.532</ele>
        <time>2019-03-25T18:44:31Z</time>
      </trkpt>
      <trkpt lat="44.77279" lon="3.88318">
        <ele>1156.392</ele>
        <time>2019-03-25T18:44:51Z</time>
      </trkpt>
      <trkpt lat="44.77173" lon="3.88366">
        <ele>1167.611</ele>
        <time>2016-06-07T22:20:13Z</time>
      </trkpt>
      <trkpt lat="44.77063" lon="3.88303">
        <ele>1159.908</ele>
        <time>2016-06-07T22:20:33Z</time>
      </trkpt>
      <trkpt lat="44.77037" lon="3.88299">
        <ele>1157.926</ele>
        <time>2016-06-07T22:20:53Z</time>
      </trkpt>
      <trkpt lat="44.77006" lon="3.88312">
        <ele>1156.787</ele>
        <time>2016-06-07T22:21:13Z</time>
      </trkpt>
      <trkpt lat="44.76983" lon="3.88288">
        <ele>1152.988</ele>
        <time>2016-06-07T22:21:33Z</time>
      </trkpt>
      <trkpt lat="44.76986" lon="3.88276">
        <ele>1152.396</ele>
        <time>2016-06-07T22:21:53Z</time>
      </trkpt>
      <trkpt lat="44.76943" lon="3.88175">
        <ele>1147.234</ele>
        <time>2019-03-25T18:47:11Z</time>
      </trkpt>
      <trkpt lat="44.7692" lon="3.88236">
        <ele>1151.316</ele>
        <time>2019-03-25T18:47:31Z</time>
      </trkpt>
      <trkpt lat="44.76896" lon="3.88224">
        <ele>1150.386</ele>
        <time>2019-03-25T18:47:51Z</time>
      </trkpt>
      <trkpt lat="44.76782" lon="3.88278">
        <ele>1134.867</ele>
        <time>2019-03-25T18:48:11Z</time>
      </trkpt>
      <trkpt lat="44.76725" lon="3.88325">
        <ele>1128.794</ele>
        <time>2019-03-25T18:48:31Z</time>
      </trkpt>
      <trkpt lat="44.76662" lon="3.88324">
        <ele>1123.157</ele>
        <time>2016-06-07T22:25:13Z</time>
      </trkpt>
      <trkpt lat="44.7664" lon="3.88311">
        <ele>1122.722</ele>
        <time>2016-06-07T22:25:33Z</time>
      </trkpt>
      <trkpt lat="44.76558" lon="3.88257">
        <ele>1114.508</ele>
        <time>2016-06-07T22:25:53Z</time>
      </trkpt>
      <trkpt lat="44.76446" lon="3.88194">
        <ele>1104.182</ele>
        <time>2016-06-07T22:26:13Z</time>
      </trkpt>
      <trkpt lat="44.76328" lon="3.88143">
        <ele>1096.273</ele>
        <time>2016-06-07T22:26:33Z</time>
      </trkpt>
      <trkpt lat="44.76189" lon="3.88016">
        <ele>1084.844</ele>
        <time>2016-06-07T22:26:53Z</time>
      </trkpt>
      <trkpt lat="44.76168" lon="3.87984">
        <ele>1082.692</ele>
        <time>2016-06-07T22:27:13Z</time>
      </trkpt>
      <trkpt lat="44.76154" lon="3.8794">
        <ele>1080.06</ele>
        <time>2016-06-07T22:27:33Z</time>
      </trkpt>
      <trkpt lat="44.76131" lon="3.87889">
        <ele>1076.142</ele>
        <time>2016-06-07T22:27:53Z</time>
      </trkpt>
      <trkpt lat="44.76121" lon="3.87848">
        <ele>1070.622</ele>
        <time>2016-06-07T22:28:13Z</time>
      </trkpt>
      <trkpt lat="44.76081" lon="3.87761">
        <ele>1064.413</ele>
        <time>2016-06-07T22:28:33Z</time>
      </trkpt>
      <trkpt lat="44.76024" lon="3.87657">
        <ele>1063.147</ele>
        <time>2016-06-07T22:28:53Z</time>
      </trkpt>
      <trkpt lat="44.75986" lon="3.87507">
        <ele>1053.929</ele>
        <time>2016-06-07T22:29:13Z</time>
      </trkpt>
      <trkpt lat="44.75964" lon="3.87468">
        <ele>1050.121</ele>
        <time>2016-06-07T22:29:33Z</time>
      </trkpt>
      <trkpt lat="44.7585" lon="3.87369">
        <ele>1038.208</ele>
        <time>2016-06-07T22:29:53Z</time>
      </trkpt>
      <trkpt lat="44.75669" lon="3.87236">
        <ele>1024.457</ele>
        <time>2016-06-07T22:30:13Z</time>
      </trkpt>
      <trkpt lat="44.75628" lon="3.87188">
        <ele>1021.128</ele>
        <time>2016-06-07T22:30:33Z</time>
      </trkpt>
      <trkpt lat="44.75522" lon="3.87033">
        <ele>1015.019</ele>
        <time>2016-06-07T22:30:53Z</time>
      </trkpt>
      <trkpt lat="44.755" lon="3.86955">
        <ele>1014.467</ele>
        <time>2016-06-07T22:31:13Z</time>
      </trkpt>
      <trkpt lat="44.75454" lon="3.86873">
        <ele>1011.365</ele>
        <time>2016-06-07T22:31:33Z</time>
      </trkpt>
      <trkpt lat="44.75397" lon="3.86796">
        <ele>1008.597</ele>
        <time>2016-06-07T22:31:53Z</time>
      </trkpt>
      <trkpt lat="44.7531" lon="3.86723">
        <ele>1010.827</ele>
        <time>2016-06-07T22:32:13Z</time>
      </trkpt>
      <trkpt lat="44.75214" lon="3.86587">
        <ele>1014.518</ele>
        <time>2016-06-07T22:32:33Z</time>
      </trkpt>
      <trkpt lat="44.75155" lon="3.86479">
        <ele>1016.258</ele>
        <time>2016-06-07T22:32:53Z</time>
      </trkpt>
      <trkpt lat="44.75108" lon="3.86364">
        <ele>1008.152</ele>
        <time>2016-06-07T22:33:13Z</time>
      </trkpt>
      <trkpt lat="44.74973" lon="3.86205">
        <ele>1008.117</ele>
        <time>2016-06-07T22:33:33Z</time>
      </trkpt>
      <trkpt lat="44.74875" lon="3.86169">
        <ele>1004.108</ele>
        <time>2016-06-07T22:33:53Z</time>
      </trkpt>
      <trkpt lat="44.74805" lon="3.86136">
        <ele>997.828</ele>
        <time>2016-06-07T22:34:13Z</time>
      </trkpt>
      <trkpt lat="44.74751" lon="3.86097">
        <ele>991.699</ele>
        <time>2016-06-07T22:34:33Z</time>
      </trkpt>
      <trkpt lat="44.74712" lon="3.86051">
        <ele>986.05</ele>
        <time>2016-06-07T22:34:53Z</time>
      </trkpt>
      <trkpt lat="44.74573" lon="3.85942">
        <ele>975.378</ele>
        <time>2016-06-07T22:35:13Z</time>
      </trkpt>
      <trkpt lat="44.74551" lon="3.85935">
        <ele>974.746</ele>
        <time>2016-06-07T22:35:33Z</time>
      </trkpt>
      <trkpt lat="44.74529" lon="3.85947">
        <ele>973.778</ele>
        <time>2016-06-07T22:35:53Z</time>
      </trkpt>
      <trkpt lat="44.74478" lon="3.85998">
        <ele>969.848</ele>
        <time>2016-06-07T22:36:13Z</time>
      </trkpt>
      <trkpt lat="44.7445" lon="3.86013">
        <ele>969.519</ele>
        <time>2016-06-07T22:36:33Z</time>
      </trkpt>
      <trkpt lat="44.74414" lon="3.86013">
        <ele>968.543</ele>
        <time>2016-06-07T22:36:53Z</time>
      </trkpt>
      <trkpt lat="44.74271" lon="3.85969">
        <ele>969.764</ele>
        <time>2016-06-07T22:37:13Z</time>
      </trkpt>
      <trkpt lat="44.74229" lon="3.85942">
        <ele>965.71</ele>
        <time>2016-06-07T22:37:33Z</time>
      </trkpt>
      <trkpt lat="44.742" lon="3.85904">
        <ele>961.808</ele>
        <time>2016-06-07T22:37:53Z</time>
      </trkpt>
      <trkpt lat="44.74182" lon="3.85846">
        <ele>960.057</ele>
        <time>2016-06-07T22:38:13Z</time>
      </trkpt>
      <trkpt lat="44.7418" lon="3.85789">
        <ele>958.178</ele>
        <time>2016-06-07T22:38:33Z</time>
      </trkpt>
      <trkpt lat="44.74167" lon="3.85756">
        <ele>956.899</ele>
        <time>2016-06-07T22:38:53Z</time>
      </trkpt>
      <trkpt lat="44.74137" lon="3.85723">
        <ele>954.547</ele>
        <time>2016-06-07T22:39:13Z</time>
      </trkpt>
      <trkpt lat="44.74086" lon="3.85698">
        <ele>948.015</ele>
        <time>2016-06-07T22:39:33Z</time>
      </trkpt>
      <trkpt lat="44.7404" lon="3.85656">
        <ele>941.947</ele>
        <time>2016-06-07T22:39:53Z</time>
      </trkpt>
      <trkpt lat="44.7402" lon="3.85652">
        <ele>939.877</ele>
        <time>2016-06-07T22:40:13Z</time>
      </trkpt>
      <trkpt lat="44.73957" lon="3.85686">
        <ele>932.058</ele>
        <time>2016-06-07T22:40:33Z</time>
      </trkpt>
      <trkpt lat="44.73904" lon="3.85739">
        <ele>920.548</ele>
        <time>2016-06-07T22:40:53Z</time>
      </trkpt>
      <trkpt lat="44.73882" lon="3.85744">
        <ele>917.361</ele>
        <time>2016-06-07T22:41:13Z</time>
      </trkpt>
      <trkpt lat="44.73721" lon="3.85697">
        <ele>903.917</ele>
        <time>2016-06-07T22:41:33Z</time>
      </trkpt>
      <trkpt lat="44.73697" lon="3.85765">
        <ele>905.508</ele>
        <time>2016-06-07T22:41:53Z</time>
      </trkpt>
      <trkpt lat="44.73653" lon="3.85761">
        <ele>906.097</ele>
        <time>2016-06-07T22:42:13Z</time>
      </trkpt>
      <trkpt lat="44.7355" lon="3.85845">
        <ele>907.318</ele>
        <time>2016-06-07T22:42:33Z</time>
      </trkpt>
      <trkpt lat="44.73514" lon="3.85836">
        <ele>905.379</ele>
        <time>2016-06-07T22:42:53Z</time>
      </trkpt>
      <trkpt lat="44.73465" lon="3.85733">
        <ele>900.617</ele>
        <time>2016-06-07T22:43:13Z</time>
      </trkpt>
      <trkpt lat="44.73439" lon="3.85712">
        <ele>902.375</ele>
        <time>2016-06-07T22:43:33Z</time>
      </trkpt>
      <trkpt lat="44.73388" lon="3.85719">
        <ele>904.437</ele>
        <time>2019-03-25T19:07:31Z</time>
      </trkpt>
      <trkpt lat="44.73347" lon="3.85752">
        <ele>907.037</ele>
        <time>2019-03-25T19:07:51Z</time>
      </trkpt>
      <trkpt lat="44.73292" lon="3.85832">
        <ele>906.158</ele>
        <time>2019-03-25T19:08:11Z</time>
      </trkpt>
      <trkpt lat="44.7322" lon="3.85846">
        <ele>904.822</ele>
        <time>2019-03-25T19:08:31Z</time>
      </trkpt>
      <trkpt lat="44.73162" lon="3.85834">
        <ele>908.662</ele>
        <time>2019-03-25T19:08:51Z</time>
      </trkpt>
      <trkpt lat="44.73106" lon="3.8579">
        <ele>906.808</ele>
        <time>2019-03-25T19:09:11Z</time>
      </trkpt>
      <trkpt lat="44.73033" lon="3.85689">
        <ele>909.608</ele>
        <time>2019-03-25T19:09:31Z</time>
      </trkpt>
      <trkpt lat="44.72957" lon="3.8567">
        <ele>908.215</ele>
        <time>2019-03-25T19:09:51Z</time>
      </trkpt>
      <trkpt lat="44.72859" lon="3.85584">
        <ele>914.876</ele>
        <time>2016-06-07T22:48:53Z</time>
      </trkpt>
      <trkpt lat="44.72738" lon="3.85548">
        <ele>914.837</ele>
        <time>2016-06-07T22:49:13Z</time>
      </trkpt>
      <trkpt lat="44.7271" lon="3.8559">
        <ele>913.535</ele>
        <time>2016-06-07T22:49:33Z</time>
      </trkpt>
      <trkpt lat="44.72696" lon="3.8562">
        <ele>912.183</ele>
        <time>2016-06-07T22:49:53Z</time>
      </trkpt>
      <trkpt lat="44.72676" lon="3.85617">
        <ele>911.995</ele>
        <time>2016-06-07T22:50:13Z</time>
      </trkpt>
      <trkpt lat="44.72646" lon="3.85597">
        <ele>911.875</ele>
        <time>2016-06-07T22:50:33Z</time>
      </trkpt>
      <trkpt lat="44.72626" lon="3.85563">
        <ele>912.716</ele>
        <time>2016-06-07T22:50:53Z</time>
      </trkpt>
      <trkpt lat="44.72567" lon="3.85633">
        <ele>910.135</ele>
        <time>2016-06-07T22:51:13Z</time>
      </trkpt>
      <trkpt lat="44.72546" lon="3.85641">
        <ele>910.086</ele>
        <time>2016-06-07T22:51:33Z</time>
      </trkpt>
      <trkpt lat="44.72534" lon="3.85653">
        <ele>910.014</ele>
        <time>2016-06-07T22:51:53Z</time>
      </trkpt>
      <trkpt lat="44.72519" lon="3.85638">
        <ele>910.908</ele>
        <time>2016-06-07T22:52:13Z</time>
      </trkpt>
      <trkpt lat="44.72486" lon="3.85656">
        <ele>916.126</ele>
        <time>2016-06-07T22:52:33Z</time>
      </trkpt>
      <trkpt lat="44.72476" lon="3.85634">
        <ele>916.097</ele>
        <time>2016-06-07T22:52:53Z</time>
      </trkpt>
      <trkpt lat="44.72437" lon="3.85599">
        <ele>915.938</ele>
        <time>2016-06-07T22:53:13Z</time>
      </trkpt>
      <trkpt lat="44.723" lon="3.85627">
        <ele>926.746</ele>
        <time>2016-06-07T22:53:33Z</time>
      </trkpt>
      <trkpt lat="44.72278" lon="3.85597">
        <ele>924.564</ele>
        <time>2016-06-07T22:53:53Z</time>
      </trkpt>
      <trkpt lat="44.72245" lon="3.85562">
        <ele>927.696</ele>
        <time>2016-06-07T22:54:13Z</time>
      </trkpt>
      <trkpt lat="44.7221" lon="3.8555">
        <ele>931.816</ele>
        <time>2016-06-07T22:54:33Z</time>
      </trkpt>
      <trkpt lat="44.72151" lon="3.85558">
        <ele>937.267</ele>
        <time>2016-06-07T22:54:53Z</time>
      </trkpt>
      <trkpt lat="44.72078" lon="3.85586">
        <ele>942.297</ele>
        <time>2016-06-07T22:55:13Z</time>
      </trkpt>
      <trkpt lat="44.7198" lon="3.8558">
        <ele>943.423</ele>
        <time>2016-06-07T22:55:33Z</time>
      </trkpt>
      <trkpt lat="44.71886" lon="3.85614">
        <ele>949.125</ele>
        <time>2016-06-07T22:55:53Z</time>
      </trkpt>
      <trkpt lat="44.71726" lon="3.85599">
        <ele>956.608</ele>
        <time>2016-06-07T22:56:13Z</time>
      </trkpt>
      <trkpt lat="44.71652" lon="3.85598">
        <ele>961.682</ele>
        <time>2016-06-07T22:56:33Z</time>
      </trkpt>
      <trkpt lat="44.7155" lon="3.85629">
        <ele>962.523</ele>
        <time>2016-06-07T22:56:53Z</time>
      </trkpt>
      <trkpt lat="44.71445" lon="3.85643">
        <ele>960.744</ele>
        <time>2016-06-07T22:57:13Z</time>
      </trkpt>
      <trkpt lat="44.71406" lon="3.85656">
        <ele>960.052</ele>
        <time>2016-06-07T22:57:33Z</time>
      </trkpt>
      <trkpt lat="44.71214" lon="3.85667">
        <ele>969.96</ele>
        <time>2016-06-07T22:57:53Z</time>
      </trkpt>
      <trkpt lat="44.71146" lon="3.85649">
        <ele>971.282</ele>
        <time>2016-06-07T22:58:13Z</time>
      </trkpt>
      <trkpt lat="44.71008" lon="3.85639">
        <ele>970.012</ele>
        <time>2016-06-07T22:58:33Z</time>
      </trkpt>
      <trkpt lat="44.70799" lon="3.85688">
        <ele>978.163</ele>
        <time>2016-06-07T22:58:53Z</time>
      </trkpt>
      <trkpt lat="44.70721" lon="3.85696">
        <ele>980.997</ele>
        <time>2016-06-07T22:59:13Z</time>
      </trkpt>
      <trkpt lat="44.70662" lon="3.85685">
        <ele>977.423</ele>
        <time>2016-06-07T22:59:33Z</time>
      </trkpt>
      <trkpt lat="44.70612" lon="3.85645">
        <ele>974.125</ele>
        <time>2016-06-07T22:59:53Z</time>
      </trkpt>
      <trkpt lat="44.70591" lon="3.85645">
        <ele>973.808</ele>
        <time>2016-06-07T23:00:13Z</time>
      </trkpt>
      <trkpt lat="44.70535" lon="3.85663">
        <ele>972.252</ele>
        <time>2016-06-07T23:00:33Z</time>
      </trkpt>
      <trkpt lat="44.70456" lon="3.85679">
        <ele>974.793</ele>
        <time>2016-06-07T23:00:53Z</time>
      </trkpt>
      <trkpt lat="44.70422" lon="3.85675">
        <ele>979.324</ele>
        <time>2016-06-07T23:01:13Z</time>
      </trkpt>
      <trkpt lat="44.70353" lon="3.85681">
        <ele>984.812</ele>
        <time>2016-06-07T23:01:33Z</time>
      </trkpt>
      <trkpt lat="44.70104" lon="3.85775">
        <ele>1000.27</ele>
        <time>2016-06-07T23:01:53Z</time>
      </trkpt>
      <trkpt lat="44.70005" lon="3.85793">
        <ele>1004.092</ele>
        <time>2016-06-07T23:02:13Z</time>
      </trkpt>
      <trkpt lat="44.69921" lon="3.85818">
        <ele>1005.862</ele>
        <time>2016-06-07T23:02:33Z</time>
      </trkpt>
    </trkseg>
  </trk>
</gpx>